Time;durP1;ratioP1;P1;durP2;ratioP2;P2;SDS_P1;SDS_P2;PMS_P1;PMS_P2;Temp;Humidity;BMP_temperature;BMP_pressure;BME280_temperature;BME280_humidity;BME280_pressure;Samples;Min_cycle;Max_cycle;Signal;HPM_P1;HPM_P2
2022/04/23 00:01:52;;;;;;;11.60;7.90;;;11.10;99.90;;;;;;4992436;28;20117;-58
2022/04/23 00:04:18;;;;;;;14.25;7.95;;;11.10;99.90;;;;;;4994054;28;20129;-57
2022/04/23 00:06:44;;;;;;;13.50;7.47;;;11.10;99.90;;;;;;4973180;28;20064;-58
2022/04/23 00:09:10;;;;;;;10.02;7.30;;;11.00;99.90;;;;;;4991300;28;20046;-59
2022/04/23 00:11:36;;;;;;;13.98;7.60;;;11.00;99.90;;;;;;4992885;28;20104;-58
2022/04/23 00:14:04;;;;;;;13.40;8.25;;;11.00;99.90;;;;;;4975895;28;20053;-58
2022/04/23 00:16:30;;;;;;;13.98;7.43;;;10.90;99.90;;;;;;4974406;28;20074;-58
2022/04/23 00:18:58;;;;;;;14.20;8.15;;;10.90;99.90;;;;;;4990601;28;20493;-58
2022/04/23 00:21:24;;;;;;;12.68;8.50;;;10.80;99.90;;;;;;4964802;28;20128;-59
2022/04/23 00:23:50;;;;;;;14.10;8.07;;;10.80;99.90;;;;;;4974559;28;20058;-59
2022/04/23 00:26:17;;;;;;;11.90;8.32;;;10.80;99.90;;;;;;4955710;28;20096;-58
2022/04/23 00:28:43;;;;;;;13.32;9.05;;;10.80;99.90;;;;;;4992297;28;20684;-57
2022/04/23 00:31:09;;;;;;;11.45;8.23;;;10.70;99.90;;;;;;4993749;28;20050;-57
2022/04/23 00:33:37;;;;;;;17.42;8.68;;;10.70;99.90;;;;;;4994726;28;20044;-57
2022/04/23 00:36:09;;;;;;;17.50;9.45;;;10.70;99.90;;;;;;4990137;28;20466;-59
2022/04/23 00:38:40;;;;;;;10.88;8.77;;;10.60;99.90;;;;;;4968901;28;20693;-59
2022/04/23 00:41:06;;;;;;;13.73;9.30;;;10.60;99.90;;;;;;4976158;28;20050;-57
2022/04/23 00:43:36;;;;;;;17.10;9.32;;;10.60;99.90;;;;;;4978921;28;20129;-58
2022/04/23 00:46:03;;;;;;;13.50;9.13;;;10.60;99.90;;;;;;4992906;28;20088;-58
2022/04/23 00:48:29;;;;;;;15.32;9.32;;;10.50;99.90;;;;;;4995369;28;20058;-59
2022/04/23 00:50:59;;;;;;;16.95;10.35;;;10.50;99.90;;;;;;4982268;28;20467;-58
2022/04/23 00:53:28;;;;;;;18.10;9.75;;;10.40;99.90;;;;;;4994788;28;20188;-59
2022/04/23 00:55:54;;;;;;;14.82;9.65;;;10.40;99.90;;;;;;4971907;28;20413;-58
2022/04/23 00:58:20;;;;;;;17.55;10.68;;;10.50;99.90;;;;;;4973839;28;20193;-58
2022/04/23 01:00:47;;;;;;;15.25;9.80;;;10.40;99.90;;;;;;4972923;28;20045;-57
2022/04/23 01:03:14;;;;;;;15.75;9.55;;;10.40;99.90;;;;;;4994779;28;20519;-58
2022/04/23 01:05:46;;;;;;;17.75;10.18;;;10.40;99.90;;;;;;4994188;28;20050;-58
2022/04/23 01:08:18;;;;;;;14.20;9.85;;;10.40;99.90;;;;;;4975295;28;20129;-57
2022/04/23 01:10:45;;;;;;;15.27;9.93;;;10.40;99.90;;;;;;4994391;28;20050;-57
2022/04/23 01:13:14;;;;;;;18.08;9.98;;;10.40;99.90;;;;;;4987100;28;20085;-58
2022/04/23 01:16:00;;;;;;;16.48;9.80;;;10.40;99.90;;;;;;4969643;28;20088;-58
2022/04/23 01:18:27;;;;;;;15.75;10.02;;;10.40;99.90;;;;;;4991209;28;20138;-58
2022/04/23 01:20:54;;;;;;;16.08;10.73;;;10.40;99.90;;;;;;4987611;28;20054;-58
2022/04/23 01:23:20;;;;;;;17.77;10.80;;;10.40;99.90;;;;;;4985530;28;20500;-57
2022/04/23 01:25:46;;;;;;;18.55;10.63;;;10.40;99.90;;;;;;4973712;28;20153;-58
2022/04/23 01:28:14;;;;;;;14.70;10.20;;;10.40;99.90;;;;;;4971580;28;20053;-59
2022/04/23 01:30:40;;;;;;;14.55;10.88;;;10.40;99.90;;;;;;4987484;28;20140;-57
2022/04/23 01:33:05;;;;;;;15.90;10.35;;;10.40;99.90;;;;;;4990178;28;20107;-57
2022/04/23 01:35:31;;;;;;;20.13;11.00;;;10.30;99.90;;;;;;4994099;28;20080;-57
2022/04/23 01:37:57;;;;;;;18.00;10.70;;;10.40;99.90;;;;;;4989954;28;20044;-58
2022/04/23 01:40:23;;;;;;;16.60;10.65;;;10.30;99.90;;;;;;4990822;28;20050;-58
2022/04/23 01:42:49;;;;;;;18.13;10.82;;;10.30;99.90;;;;;;4960093;28;20493;-58
2022/04/23 01:45:14;;;;;;;18.08;11.30;;;10.30;99.90;;;;;;4991959;28;20420;-59
2022/04/23 01:47:40;;;;;;;15.32;11.25;;;10.30;99.90;;;;;;4989390;28;20072;-57
2022/04/23 01:50:08;;;;;;;16.25;11.27;;;10.30;99.90;;;;;;4977926;28;20042;-59
2022/04/23 01:52:33;;;;;;;17.10;10.98;;;10.30;99.90;;;;;;4993850;28;20069;-58
2022/04/23 01:54:59;;;;;;;20.30;11.50;;;10.30;99.90;;;;;;4990452;28;20850;-58
2022/04/23 01:57:25;;;;;;;15.90;10.98;;;10.30;99.90;;;;;;4989217;28;20070;-57
2022/04/23 01:59:51;;;;;;;17.42;11.52;;;10.30;99.90;;;;;;4988134;28;20121;-57
2022/04/23 02:02:17;;;;;;;16.08;11.50;;;10.30;99.90;;;;;;4989590;28;20547;-58
2022/04/23 02:04:42;;;;;;;17.08;11.85;;;10.20;99.90;;;;;;4982084;28;20049;-57
2022/04/23 02:07:09;;;;;;;19.42;12.20;;;10.20;99.90;;;;;;4991415;28;20496;-59
2022/04/23 02:09:35;;;;;;;16.00;12.23;;;10.20;99.90;;;;;;4990200;28;20050;-58
2022/04/23 02:12:01;;;;;;;19.02;11.98;;;10.10;99.90;;;;;;4978656;28;20053;-58
2022/04/23 02:14:28;;;;;;;19.38;12.52;;;10.00;99.90;;;;;;4990231;28;20085;-58
2022/04/23 02:16:54;;;;;;;20.60;12.85;;;10.00;99.90;;;;;;4993026;28;20122;-58
2022/04/23 02:19:22;;;;;;;20.42;12.25;;;9.90;99.90;;;;;;4971038;28;20120;-58
2022/04/23 02:21:48;;;;;;;15.32;11.82;;;9.80;99.90;;;;;;4991058;28;20049;-58
2022/04/23 02:24:14;;;;;;;17.58;12.63;;;9.80;99.90;;;;;;4987897;28;20049;-58
2022/04/23 02:26:41;;;;;;;17.17;12.50;;;9.70;99.90;;;;;;4988249;28;20188;-57
2022/04/23 02:29:07;;;;;;;17.00;11.95;;;9.60;99.90;;;;;;4988087;28;20042;-57
2022/04/23 02:31:33;;;;;;;20.75;12.88;;;9.60;99.90;;;;;;4991755;28;20089;-59
2022/04/23 02:33:59;;;;;;;17.40;12.43;;;9.60;99.90;;;;;;4959188;28;20050;-59
2022/04/23 02:36:25;;;;;;;19.10;12.35;;;9.50;99.90;;;;;;4988352;28;20377;-58
2022/04/23 02:38:51;;;;;;;19.77;12.90;;;9.50;99.90;;;;;;4987531;28;20496;-58
2022/04/23 02:41:18;;;;;;;16.83;12.82;;;9.50;99.90;;;;;;4970257;28;20060;-59
2022/04/23 02:43:45;;;;;;;17.17;12.85;;;9.50;99.90;;;;;;4992135;28;20045;-58
2022/04/23 02:46:15;;;;;;;18.13;11.98;;;9.50;99.90;;;;;;4995337;28;20052;-57
2022/04/23 02:48:42;;;;;;;18.17;12.23;;;9.40;99.90;;;;;;4979070;28;20680;-59
2022/04/23 02:51:08;;;;;;;19.65;12.85;;;9.40;99.90;;;;;;4984057;28;20057;-58
2022/04/23 02:53:34;;;;;;;16.30;12.07;;;9.40;99.90;;;;;;4996204;28;20104;-58
2022/04/23 02:56:02;;;;;;;16.70;12.63;;;9.40;99.90;;;;;;4994466;28;20464;-58
2022/04/23 02:58:28;;;;;;;18.85;13.50;;;9.30;99.90;;;;;;4992601;28;20104;-57
2022/04/23 03:00:54;;;;;;;21.30;13.40;;;9.30;99.90;;;;;;4960122;28;20042;-59
2022/04/23 03:03:21;;;;;;;19.42;12.18;;;9.20;99.90;;;;;;4983636;28;20530;-58
2022/04/23 03:05:47;;;;;;;21.52;12.90;;;9.20;99.90;;;;;;4992753;28;20050;-57
2022/04/23 03:08:13;;;;;;;19.48;12.27;;;9.20;99.90;;;;;;4992070;28;20131;-58
2022/04/23 03:10:39;;;;;;;18.15;12.32;;;9.20;99.90;;;;;;4959638;28;20046;-58
2022/04/23 03:13:07;;;;;;;20.90;12.35;;;9.20;99.90;;;;;;4994054;28;20038;-57
2022/04/23 03:15:35;;;;;;;18.52;11.75;;;9.10;99.90;;;;;;4992333;28;20046;-58
2022/04/23 03:18:11;;;;;;;16.55;11.90;;;9.10;99.90;;;;;;4991631;28;20046;-58
2022/04/23 03:20:39;;;;;;;20.45;12.23;;;9.10;99.90;;;;;;4977674;28;20042;-58
2022/04/23 03:23:05;;;;;;;19.02;11.68;;;9.20;99.90;;;;;;4991253;28;20435;-58
2022/04/23 03:25:32;;;;;;;17.02;11.35;;;9.20;99.90;;;;;;4994071;28;20033;-57
2022/04/23 03:27:59;;;;;;;16.40;11.20;;;9.10;99.90;;;;;;4992682;28;20042;-58
2022/04/23 03:30:26;;;;;;;16.73;12.15;;;9.20;99.90;;;;;;4957075;28;20057;-58
2022/04/23 03:32:52;;;;;;;15.80;11.50;;;9.20;99.90;;;;;;4966136;28;20057;-58
2022/04/23 03:35:18;;;;;;;15.23;11.45;;;9.20;99.90;;;;;;4971955;28;20433;-59
2022/04/23 03:37:44;;;;;;;17.55;11.38;;;9.20;99.90;;;;;;4970411;28;20127;-57
2022/04/23 03:40:11;;;;;;;18.10;11.82;;;9.30;99.90;;;;;;4974662;28;20128;-57
2022/04/23 03:42:38;;;;;;;16.33;10.98;;;9.30;99.90;;;;;;4971621;28;20047;-58
2022/04/23 03:45:05;;;;;;;15.82;11.65;;;9.30;99.90;;;;;;4971101;28;20101;-57
2022/04/23 03:47:32;;;;;;;14.65;11.55;;;9.40;99.90;;;;;;4973845;28;20078;-59
2022/04/23 03:50:06;;;;;;;15.23;11.13;;;9.40;99.90;;;;;;4975344;28;20404;-58
2022/04/23 03:52:32;;;;;;;15.15;10.48;;;9.40;99.90;;;;;;4973505;28;20034;-57
2022/04/23 03:54:58;;;;;;;15.25;11.25;;;9.40;99.90;;;;;;4972049;28;20051;-58
2022/04/23 03:57:24;;;;;;;15.07;11.18;;;9.40;99.90;;;;;;4965713;28;20524;-57
2022/04/23 03:59:50;;;;;;;13.98;11.05;;;9.40;99.90;;;;;;4974262;28;20046;-58
2022/04/23 04:02:16;;;;;;;13.23;10.95;;;9.40;99.90;;;;;;4970822;28;20045;-58
2022/04/23 04:04:43;;;;;;;12.43;10.98;;;9.40;99.90;;;;;;4974629;28;20291;-57
2022/04/23 04:07:09;;;;;;;13.50;10.75;;;9.40;99.90;;;;;;4965108;28;20180;-57
2022/04/23 04:09:35;;;;;;;13.88;11.43;;;9.40;99.90;;;;;;4963663;28;20256;-58
2022/04/23 04:12:01;;;;;;;14.52;11.05;;;9.40;99.90;;;;;;4972809;28;20054;-57
2022/04/23 04:14:32;;;;;;;17.00;11.48;;;9.40;99.90;;;;;;4970153;28;20100;-59
2022/04/23 04:16:59;;;;;;;14.98;11.18;;;9.40;99.90;;;;;;4973956;28;20588;-58
2022/04/23 04:19:29;;;;;;;14.27;11.13;;;9.40;99.90;;;;;;4972365;28;20164;-57
2022/04/23 04:21:57;;;;;;;14.00;11.15;;;9.40;99.90;;;;;;4971412;28;20055;-59
2022/04/23 04:24:24;;;;;;;17.67;11.35;;;9.40;99.90;;;;;;4973571;28;20058;-57
2022/04/23 04:26:50;;;;;;;18.00;11.23;;;9.30;99.90;;;;;;4973436;28;20049;-58
2022/04/23 04:29:17;;;;;;;17.25;12.20;;;9.40;99.90;;;;;;4973149;28;20047;-59
2022/04/23 04:31:49;;;;;;;15.48;11.20;;;9.40;99.90;;;;;;4992246;28;20496;-58
2022/04/23 04:34:20;;;;;;;15.93;12.13;;;9.30;99.90;;;;;;4994978;28;20112;-58
2022/04/23 04:36:48;;;;;;;17.58;11.90;;;9.30;99.90;;;;;;4993290;28;20484;-57
2022/04/23 04:39:15;;;;;;;16.30;11.98;;;9.20;99.90;;;;;;4990510;28;20400;-59
2022/04/23 04:41:41;;;;;;;16.92;11.55;;;9.20;99.90;;;;;;4993688;28;20046;-58
2022/04/23 04:44:08;;;;;;;14.57;12.15;;;9.20;99.90;;;;;;4991821;28;20042;-58
2022/04/23 04:46:35;;;;;;;14.88;11.75;;;9.20;99.90;;;;;;4991262;28;20054;-58
2022/04/23 04:49:03;;;;;;;13.70;12.00;;;9.20;99.90;;;;;;4985452;28;20070;-58
2022/04/23 04:51:29;;;;;;;14.30;11.18;;;9.20;99.90;;;;;;4989595;28;20060;-58
2022/04/23 04:53:56;;;;;;;13.57;11.73;;;9.20;99.90;;;;;;4991376;28;20112;-58
2022/04/23 04:56:23;;;;;;;15.13;11.48;;;9.20;99.90;;;;;;4991160;28;20049;-58
2022/04/23 04:58:49;;;;;;;15.77;11.30;;;9.20;99.90;;;;;;4993738;28;20057;-58
2022/04/23 05:01:16;;;;;;;14.75;11.80;;;9.20;99.90;;;;;;4993790;28;20045;-58
2022/04/23 05:03:43;;;;;;;13.45;11.40;;;9.20;99.90;;;;;;4988762;28;20111;-57
2022/04/23 05:06:12;;;;;;;15.48;11.73;;;9.20;99.90;;;;;;4989778;28;20516;-58
2022/04/23 05:08:38;;;;;;;15.13;11.45;;;9.20;99.90;;;;;;4970815;28;20042;-58
2022/04/23 05:11:05;;;;;;;14.73;11.35;;;9.20;99.90;;;;;;4990622;28;20143;-58
2022/04/23 05:13:31;;;;;;;13.80;11.52;;;9.20;99.90;;;;;;4990800;28;20125;-58
2022/04/23 05:15:58;;;;;;;14.07;11.55;;;9.20;99.90;;;;;;4989106;28;20844;-59
2022/04/23 05:18:24;;;;;;;15.15;11.40;;;9.20;99.90;;;;;;4974146;28;20046;-58
2022/04/23 05:20:50;;;;;;;14.43;11.07;;;9.20;99.90;;;;;;4972121;28;20546;-57
2022/04/23 05:23:16;;;;;;;14.05;11.13;;;9.20;99.90;;;;;;4967191;28;20042;-59
2022/04/23 05:25:41;;;;;;;13.60;11.27;;;9.20;99.90;;;;;;4970466;28;20469;-59
2022/04/23 05:28:07;;;;;;;12.68;10.85;;;9.30;99.90;;;;;;4990127;28;20084;-57
2022/04/23 05:30:37;;;;;;;14.00;11.27;;;9.30;99.90;;;;;;4970792;28;20700;-59
2022/04/23 05:33:04;;;;;;;15.73;11.68;;;9.30;99.90;;;;;;4965832;28;20144;-58
2022/04/23 05:35:30;;;;;;;16.13;11.02;;;9.30;99.90;;;;;;4966187;28;20489;-58
2022/04/23 05:37:56;;;;;;;13.10;10.85;;;9.30;99.90;;;;;;4985474;28;20053;-58
2022/04/23 05:40:22;;;;;;;14.10;10.95;;;9.30;99.90;;;;;;4974935;28;20045;-57
2022/04/23 05:42:48;;;;;;;12.88;10.80;;;9.40;99.90;;;;;;4952030;28;20042;-58
2022/04/23 05:45:14;;;;;;;14.45;11.48;;;9.40;99.90;;;;;;4975237;28;20842;-59
2022/04/23 05:47:41;;;;;;;15.95;11.05;;;9.40;99.90;;;;;;4989305;28;20098;-57
2022/04/23 05:50:08;;;;;;;13.02;11.20;;;9.50;99.90;;;;;;4986438;28;20880;-57
2022/04/23 05:52:36;;;;;;;15.60;10.65;;;9.50;99.90;;;;;;4990526;28;20133;-57
2022/04/23 05:55:02;;;;;;;16.92;11.52;;;9.50;99.90;;;;;;4986661;28;22313;-59
2022/04/23 05:57:31;;;;;;;13.30;10.43;;;9.50;99.90;;;;;;4987043;28;20088;-57
2022/04/23 05:59:57;;;;;;;11.75;10.45;;;9.50;99.90;;;;;;4989432;28;20050;-58
2022/04/23 06:02:22;;;;;;;14.20;10.88;;;9.60;99.90;;;;;;4989094;28;20116;-58
2022/04/23 06:04:49;;;;;;;12.93;10.40;;;9.60;99.90;;;;;;4990352;28;20405;-58
2022/04/23 06:07:16;;;;;;;12.05;10.43;;;9.60;99.90;;;;;;4989333;28;20536;-58
2022/04/23 06:09:42;;;;;;;14.27;10.70;;;9.70;99.90;;;;;;4989163;28;20053;-58
2022/04/23 06:12:08;;;;;;;13.93;11.00;;;9.70;99.90;;;;;;4971157;28;20046;-59
2022/04/23 06:14:34;;;;;;;13.27;11.07;;;9.70;99.90;;;;;;4993316;28;20583;-58
2022/04/23 06:17:00;;;;;;;16.55;11.35;;;9.80;99.90;;;;;;4973061;28;20045;-57
2022/04/23 06:19:26;;;;;;;15.95;11.02;;;9.90;99.90;;;;;;4963183;28;20052;-58
2022/04/23 06:21:52;;;;;;;15.95;11.40;;;9.90;99.90;;;;;;4974967;28;20045;-58
2022/04/23 06:24:18;;;;;;;14.98;10.70;;;10.00;99.90;;;;;;4979485;28;20049;-58
2022/04/23 06:26:47;;;;;;;13.82;11.00;;;10.00;99.90;;;;;;4990141;28;20493;-59
2022/04/23 06:29:13;;;;;;;14.40;11.35;;;10.00;99.90;;;;;;4988600;28;20142;-59
2022/04/23 06:31:38;;;;;;;16.90;11.43;;;10.10;99.90;;;;;;4971184;28;20053;-58
2022/04/23 06:34:04;;;;;;;16.88;11.20;;;10.10;99.90;;;;;;4976291;28;20081;-59
2022/04/23 06:36:30;;;;;;;16.55;11.30;;;10.20;99.90;;;;;;4964462;28;20037;-59
2022/04/23 06:38:56;;;;;;;18.25;11.77;;;10.20;99.90;;;;;;4985777;28;20480;-59
2022/04/23 06:41:22;;;;;;;13.90;11.40;;;10.30;99.90;;;;;;4990177;28;20073;-57
2022/04/23 06:43:47;;;;;;;14.43;11.18;;;10.30;99.90;;;;;;4973280;28;20058;-58
2022/04/23 06:46:13;;;;;;;14.95;11.82;;;10.40;99.90;;;;;;4985787;28;20080;-58
2022/04/23 06:48:39;;;;;;;14.05;11.38;;;10.50;99.90;;;;;;4975370;28;20086;-59
2022/04/23 06:51:05;;;;;;;13.05;11.13;;;10.60;99.90;;;;;;4988642;28;20140;-58
2022/04/23 06:53:30;;;;;;;15.15;11.40;;;10.60;99.90;;;;;;4988806;28;23811;-58
2022/04/23 06:55:56;;;;;;;13.93;11.27;;;10.70;99.90;;;;;;4991093;28;20042;-57
2022/04/23 06:58:22;;;;;;;16.02;11.93;;;10.80;99.90;;;;;;4990827;28;20034;-59
2022/04/23 07:00:48;;;;;;;13.98;11.35;;;10.80;99.90;;;;;;4983210;28;20053;-58
2022/04/23 07:03:14;;;;;;;13.65;11.70;;;10.90;99.90;;;;;;4989312;28;20409;-58
2022/04/23 07:05:39;;;;;;;13.98;11.15;;;11.00;99.90;;;;;;4990403;28;20480;-58
2022/04/23 07:08:05;;;;;;;15.02;11.90;;;11.10;99.90;;;;;;4993720;28;20508;-58
2022/04/23 07:10:32;;;;;;;14.43;11.32;;;11.20;99.90;;;;;;4983110;28;20053;-58
2022/04/23 07:12:58;;;;;;;15.10;10.68;;;11.20;99.90;;;;;;4990316;28;20101;-58
2022/04/23 07:15:25;;;;;;;18.40;10.60;;;11.30;99.90;;;;;;4957705;28;20539;-59
2022/04/23 07:17:51;;;;;;;14.27;11.18;;;11.40;99.90;;;;;;4990250;28;20065;-58
2022/04/23 07:20:18;;;;;;;15.35;11.52;;;11.50;99.90;;;;;;4976053;28;20054;-58
2022/04/23 07:25:31;;;;;;;17.45;11.15;;;11.60;99.90;;;;;;4990224;28;20054;-58
2022/04/23 07:27:58;;;;;;;14.40;10.88;;;11.70;99.80;;;;;;4978112;28;20539;-58
2022/04/23 07:30:27;;;;;;;13.55;10.65;;;11.80;99.30;;;;;;4995282;28;20104;-59
2022/04/23 07:32:54;;;;;;;14.57;10.32;;;11.90;98.80;;;;;;4999610;28;20045;-58
2022/04/23 07:38:16;;;;;;;16.73;10.40;;;12.10;97.70;;;;;;4977233;28;20129;-58
2022/04/23 07:40:46;;;;;;;16.90;10.10;;;12.20;97.20;;;;;;4996494;28;21484;-59
2022/04/23 07:43:14;;;;;;;13.43;10.30;;;12.30;97.20;;;;;;4994882;28;21051;-59
2022/04/23 07:45:41;;;;;;;13.98;10.15;;;12.40;97.40;;;;;;4985765;28;20053;-58
2022/04/23 07:48:08;;;;;;;10.52;9.27;;;12.50;97.00;;;;;;4996173;28;20440;-58
2022/04/23 07:50:36;;;;;;;12.90;10.43;;;12.60;96.30;;;;;;4995887;28;20046;-57
2022/04/23 07:53:03;;;;;;;13.35;10.50;;;12.70;95.30;;;;;;4996120;28;20046;-58
2022/04/23 07:55:32;;;;;;;14.88;10.45;;;12.70;94.70;;;;;;4975589;28;20040;-58
2022/04/23 07:57:59;;;;;;;14.15;10.00;;;12.80;94.80;;;;;;4995684;28;20507;-59
2022/04/23 08:00:26;;;;;;;13.18;10.60;;;12.80;94.30;;;;;;4996772;28;20054;-57
2022/04/23 08:02:52;;;;;;;12.18;10.45;;;12.90;94.20;;;;;;4996310;28;20719;-59
2022/04/23 08:05:18;;;;;;;13.10;10.98;;;13.00;94.20;;;;;;4995299;28;20049;-58
2022/04/23 08:07:44;;;;;;;16.90;10.70;;;13.20;93.70;;;;;;4992825;28;20057;-59
2022/04/23 08:10:11;;;;;;;11.95;10.63;;;13.20;92.30;;;;;;4978717;28;20057;-58
2022/04/23 08:12:37;;;;;;;15.52;10.45;;;13.30;92.00;;;;;;4989297;28;20050;-58
2022/04/23 08:15:04;;;;;;;11.73;10.43;;;13.30;91.50;;;;;;4992456;28;20045;-59
2022/04/23 08:17:30;;;;;;;15.98;10.60;;;13.40;90.50;;;;;;4978124;28;20125;-58
2022/04/23 08:19:56;;;;;;;17.00;11.65;;;13.50;90.10;;;;;;4978524;28;20526;-57
2022/04/23 08:22:22;;;;;;;12.40;10.60;;;13.50;89.00;;;;;;4996650;28;20049;-58
2022/04/23 08:24:48;;;;;;;17.27;10.90;;;13.60;88.80;;;;;;4979237;28;20043;-58
2022/04/23 08:27:14;;;;;;;13.38;11.50;;;13.60;88.20;;;;;;4992818;28;20074;-57
2022/04/23 08:32:24;;;;;;;14.45;11.10;;;13.70;84.60;;;;;;4996443;28;20553;-59
2022/04/23 08:34:49;;;;;;;12.50;10.57;;;13.70;84.60;;;;;;4994648;28;20050;-58
2022/04/23 08:37:15;;;;;;;11.73;10.48;;;13.80;83.40;;;;;;4993359;28;20049;-58
2022/04/23 08:39:47;;;;;;;12.70;9.88;;;13.90;82.80;;;;;;4994124;28;20714;-58
2022/04/23 08:42:16;;;;;;;15.57;10.18;;;13.90;81.70;;;;;;4995315;28;20050;-58
2022/04/23 08:44:43;;;;;;;14.18;10.93;;;14.00;81.30;;;;;;4978971;28;20049;-58
2022/04/23 08:47:11;;;;;;;14.95;11.57;;;14.10;80.70;;;;;;4991772;28;20093;-57
2022/04/23 08:49:40;;;;;;;14.20;11.18;;;14.20;80.40;;;;;;4997291;28;20508;-58
2022/04/23 08:52:18;;;;;;;11.68;10.48;;;14.30;79.40;;;;;;4968906;28;20057;-58
2022/04/23 08:54:44;;;;;;;16.08;11.02;;;14.30;77.80;;;;;;4992839;28;20042;-57
2022/04/23 08:57:10;;;;;;;20.27;11.45;;;14.30;77.80;;;;;;4995728;28;20080;-58
2022/04/23 08:59:36;;;;;;;14.85;10.95;;;14.40;77.80;;;;;;4995936;28;20054;-57
2022/04/23 09:02:10;;;;;;;13.55;10.40;;;14.40;77.10;;;;;;4991802;28;20046;-58
2022/04/23 09:04:37;;;;;;;16.00;10.48;;;14.50;77.10;;;;;;4996674;28;20428;-58
2022/04/23 09:07:03;;;;;;;15.50;10.07;;;14.60;76.70;;;;;;4994593;28;20066;-57
2022/04/23 09:09:29;;;;;;;14.70;10.57;;;14.70;77.30;;;;;;4976615;28;20053;-58
2022/04/23 09:11:57;;;;;;;15.43;10.43;;;14.90;77.10;;;;;;4994359;28;20057;-58
2022/04/23 09:14:31;;;;;;;12.15;10.35;;;15.00;75.20;;;;;;4993522;28;20566;-59
2022/04/23 09:25:17;;;;;;;13.80;10.02;;;15.10;72.20;;;;;;4966081;28;20483;-59
2022/04/23 09:27:43;;;;;;;12.32;10.52;;;15.10;71.40;;;;;;4994783;28;20105;-57
2022/04/23 09:30:13;;;;;;;14.88;10.60;;;15.10;71.50;;;;;;4972506;28;20061;-58
2022/04/23 09:32:57;;;;;;;12.10;10.85;;;15.20;72.00;;;;;;4993219;28;20077;-58
2022/04/23 09:35:24;;;;;;;12.75;10.45;;;15.30;72.00;;;;;;4974008;28;20046;-58
2022/04/23 09:40:34;;;;;;;11.38;9.73;;;15.30;70.90;;;;;;4975762;28;20056;-58
2022/04/23 09:43:02;;;;;;;11.10;9.93;;;15.30;70.00;;;;;;4991397;28;20049;-58
2022/04/23 09:45:29;;;;;;;12.52;10.38;;;15.40;69.70;;;;;;4975242;28;20050;-59
2022/04/23 09:47:57;;;;;;;12.52;10.60;;;15.40;69.80;;;;;;4992486;28;20137;-59
2022/04/23 09:50:23;;;;;;;13.90;10.57;;;15.50;69.80;;;;;;4984298;28;20073;-58
2022/04/23 09:52:53;;;;;;;16.90;9.68;;;15.50;70.40;;;;;;4974472;28;20046;-58
2022/04/23 09:55:23;;;;;;;10.63;9.52;;;15.70;70.00;;;;;;4989979;28;20118;-58
2022/04/23 09:57:49;;;;;;;11.32;9.80;;;15.90;69.80;;;;;;4992213;28;20168;-58
2022/04/23 10:00:16;;;;;;;17.25;10.40;;;16.00;69.70;;;;;;4992641;28;20078;-58
2022/04/23 10:02:45;;;;;;;12.77;9.40;;;16.10;69.50;;;;;;4989880;28;20076;-59
2022/04/23 10:05:15;;;;;;;11.15;8.50;;;16.30;67.50;;;;;;4994266;28;20054;-58
2022/04/23 10:07:45;;;;;;;9.75;8.38;;;16.40;66.20;;;;;;4992096;28;20046;-58
2022/04/23 10:10:13;;;;;;;12.80;8.63;;;16.50;65.80;;;;;;4992894;28;20048;-58
2022/04/23 10:12:42;;;;;;;12.23;9.35;;;16.60;65.50;;;;;;4985928;28;20069;-58
2022/04/23 10:15:09;;;;;;;10.38;9.07;;;16.60;66.10;;;;;;4990612;28;20049;-58
2022/04/23 10:17:36;;;;;;;16.67;9.32;;;16.80;66.80;;;;;;4990513;28;20078;-60
2022/04/23 10:20:02;;;;;;;9.15;8.25;;;16.90;65.40;;;;;;4974455;28;20522;-58
2022/04/23 10:22:54;;;;;;;14.68;9.52;;;17.10;65.00;;;;;;4990727;28;20052;-58
2022/04/23 10:25:45;;;;;;;12.05;9.35;;;17.10;62.80;;;;;;4979753;28;20064;-58
2022/04/23 10:28:12;;;;;;;14.48;8.05;;;17.10;61.80;;;;;;4973722;28;20061;-58
2022/04/23 10:30:37;;;;;;;9.75;8.35;;;17.10;61.80;;;;;;4987608;28;20096;-58
2022/04/23 10:33:26;;;;;;;9.13;8.02;;;17.10;62.10;;;;;;4988034;28;20136;-59
2022/04/23 10:36:09;;;;;;;11.02;8.50;;;17.10;61.20;;;;;;4968237;28;20061;-58
2022/04/23 10:38:45;;;;;;;10.18;8.35;;;17.10;61.80;;;;;;4984938;28;20046;-58
2022/04/23 10:41:13;;;;;;;9.63;7.88;;;17.10;61.90;;;;;;4989678;28;20071;-59
2022/04/23 10:43:57;;;;;;;14.95;8.40;;;17.20;61.10;;;;;;4988684;28;20084;-58
2022/04/23 10:46:41;;;;;;;9.73;7.80;;;17.30;60.50;;;;;;4981298;28;20046;-58
2022/04/23 10:49:17;;;;;;;11.25;8.25;;;17.40;61.10;;;;;;4986100;28;20052;-58
2022/04/23 10:51:51;;;;;;;8.90;7.55;;;17.50;59.80;;;;;;4984896;28;20050;-58
2022/04/23 10:54:20;;;;;;;10.65;7.95;;;17.60;59.50;;;;;;4985555;28;20184;-58
2022/04/23 10:56:57;;;;;;;9.25;7.15;;;17.70;59.40;;;;;;4974918;28;21561;-59
2022/04/23 10:59:45;;;;;;;7.93;7.07;;;17.70;59.10;;;;;;4986789;28;20046;-58
2022/04/23 11:02:19;;;;;;;12.45;7.20;;;17.90;58.50;;;;;;4985296;28;20050;-59
2022/04/23 11:13:31;;;;;;;10.45;6.70;;;18.00;56.30;;;;;;4980748;28;20046;-59
2022/04/23 11:16:10;;;;;;;9.80;7.28;;;18.10;55.70;;;;;;4989451;28;21416;-59
2022/04/23 11:18:37;;;;;;;8.80;7.50;;;18.10;55.60;;;;;;4988855;28;20117;-59
2022/04/23 11:21:16;;;;;;;9.80;6.68;;;18.20;56.10;;;;;;4974302;28;20136;-58
2022/04/23 11:23:47;;;;;;;10.15;6.85;;;18.20;55.90;;;;;;4989207;28;20045;-59
2022/04/23 11:26:18;;;;;;;8.38;6.93;;;18.20;54.60;;;;;;4989445;28;20054;-59
2022/04/23 11:28:45;;;;;;;7.15;6.18;;;18.30;54.80;;;;;;4944146;28;20050;-59
2022/04/23 11:31:14;;;;;;;8.48;6.35;;;18.40;55.90;;;;;;4968983;28;20843;-59
2022/04/23 11:33:50;;;;;;;7.45;6.20;;;18.50;56.20;;;;;;4967346;28;20105;-57
2022/04/23 11:36:18;;;;;;;9.20;6.15;;;18.70;55.00;;;;;;4975486;28;20182;-58
2022/04/23 11:38:44;;;;;;;7.68;5.63;;;18.80;53.80;;;;;;4963840;28;20515;-59
2022/04/23 11:41:10;;;;;;;10.02;5.75;;;18.90;54.80;;;;;;4977808;28;20042;-58
2022/04/23 11:43:39;;;;;;;8.43;6.03;;;19.00;55.20;;;;;;4973308;28;20057;-59
2022/04/23 11:46:08;;;;;;;8.38;6.28;;;19.30;54.70;;;;;;4971324;28;20054;-59
2022/04/23 11:48:46;;;;;;;8.02;6.20;;;19.30;53.10;;;;;;4974317;28;20124;-58
2022/04/23 11:51:12;;;;;;;7.88;6.03;;;19.30;53.90;;;;;;4973425;28;20100;-58
2022/04/23 11:53:58;;;;;;;9.23;6.28;;;19.50;53.80;;;;;;4976742;28;20042;-56
2022/04/23 11:56:28;;;;;;;8.32;5.65;;;19.60;52.60;;;;;;4973290;28;20457;-58
2022/04/23 11:58:56;;;;;;;6.80;5.68;;;19.70;52.30;;;;;;4975581;28;20121;-58
2022/04/23 12:01:26;;;;;;;12.25;5.88;;;19.90;52.60;;;;;;4972829;28;20108;-60
2022/04/23 12:03:54;;;;;;;8.52;5.63;;;20.00;51.50;;;;;;4973627;28;20074;-61
2022/04/23 12:06:25;;;;;;;7.50;5.47;;;19.90;50.30;;;;;;4964712;28;20046;-59
2022/04/23 12:08:51;;;;;;;6.63;5.53;;;19.90;49.60;;;;;;4973123;28;20493;-59
2022/04/23 12:11:21;;;;;;;6.35;5.00;;;19.90;49.40;;;;;;4974154;28;20473;-60
2022/04/23 12:13:50;;;;;;;6.40;5.80;;;19.90;49.80;;;;;;4970194;28;20053;-60
2022/04/23 12:16:37;;;;;;;6.85;6.13;;;19.90;49.50;;;;;;4967219;28;20061;-58
2022/04/23 12:19:09;;;;;;;9.10;6.00;;;19.90;48.60;;;;;;4968317;28;20097;-59
2022/04/23 12:21:37;;;;;;;8.38;5.38;;;19.80;48.50;;;;;;4956031;28;20062;-59
2022/04/23 12:24:03;;;;;;;10.40;5.30;;;19.80;48.90;;;;;;4972729;28;20505;-59
2022/04/23 12:26:37;;;;;;;11.98;5.93;;;19.90;49.00;;;;;;4969249;28;20481;-59
2022/04/23 12:40:45;;;;;;;6.63;4.97;;;20.20;48.10;;;;;;4966680;28;20076;-60
2022/04/23 12:43:25;;;;;;;11.60;5.07;;;20.30;48.40;;;;;;4967229;28;20507;-59
2022/04/23 12:46:05;;;;;;;6.43;5.68;;;20.40;48.30;;;;;;4965925;28;20385;-60
2022/04/23 12:48:52;;;;;;;11.43;4.70;;;20.50;48.10;;;;;;4964012;28;20129;-62
2022/04/23 12:51:18;;;;;;;4.60;4.20;;;20.70;47.60;;;;;;4952596;28;20057;-59
2022/04/23 12:53:44;;;;;;;9.18;4.47;;;20.70;46.30;;;;;;4966357;28;20576;-62
2022/04/23 12:56:10;;;;;;;7.93;4.30;;;20.80;46.00;;;;;;4964662;28;20060;-60
2022/04/23 12:58:35;;;;;;;8.32;4.60;;;20.80;46.30;;;;;;4952185;28;20438;-59
2022/04/23 13:01:01;;;;;;;6.57;4.45;;;20.90;46.50;;;;;;4965733;28;20085;-60
2022/04/23 13:03:34;;;;;;;6.47;4.30;;;21.10;46.40;;;;;;4974861;28;20081;-62
2022/04/23 13:06:00;;;;;;;;;;;21.10;46.40;;;;;;4974800;28;20047;-60
2022/04/23 13:11:29;;;;;;;10.13;4.75;;;21.30;45.90;;;;;;4975060;28;20390;-59
2022/04/23 13:14:04;;;;;;;8.85;4.35;;;21.40;45.50;;;;;;4974741;28;20046;-61
2022/04/23 13:16:31;;;;;;;6.30;4.50;;;21.40;45.40;;;;;;4974308;28;20047;-61
2022/04/23 13:18:59;;;;;;;10.85;4.47;;;21.40;44.80;;;;;;4973306;28;20049;-60
2022/04/23 13:21:30;;;;;;;5.13;4.43;;;21.40;44.60;;;;;;4972503;28;20077;-59
2022/04/23 13:23:56;;;;;;;7.20;4.50;;;21.40;43.90;;;;;;4966320;28;20046;-60